Latest Coastal Weather Observations for Flinders Reef

IDQ60701

Issued at 7:35 am EST Tuesday 25 November 2014 (issued every 10 minutes, with the page automatically refreshed every 10 minutes)

About coastal observations | Map of coastal stations | Coastal observations for QLD | Marine services | Other Formats
Station Details ID: 200783 Name: FLINDERS REEF Lat: -17.72 Lon: 148.45 Height: 2.6 m
Data from the previous 72 hours. | See also: Recent months at Flinders Reef
Date/Time
EST
Temp

°C
Wind Pressure Rain
since 9am
mm
Weather Cloud Vis
km
Sea
Height
m
Swell
Dir
 
Speed
knots
Gust
knots
hPa Trend Height
m
Period
s
Dir
25/07:30am - ESE 13 15 1012.4 - - - - - - - - -
25/07:24am - ESE 13 13 1012.4 - - - - - - - - -
25/07:00am - ESE 14 16 1012.3 - - - - - - - - -
25/06:30am - ESE 13 15 1012.3 - - - - - - - - -
25/06:24am - ESE 13 - 1012.2 - - - - - - - - -
25/06:00am - ESE 11 14 1012.0 - - - - - - - - -
25/05:30am - E 11 13 1011.9 - - - - - - - - -
25/05:24am - E 11 - 1011.7 - - - - - - - - -
25/05:00am - E 11 14 1011.5 - - - - - - - - -
25/04:30am - E 12 14 1011.4 - - - - - - - - -
25/04:24am - E 11 - 1011.3 - - - - - - - - -
25/04:00am - E 12 15 1011.3 - - - - - - - - -
25/03:30am - E 12 15 1011.2 - - - - - - - - -
25/03:24am - E 12 - 1011.0 - - - - - - - - -
25/03:00am - E 13 14 1011.1 - - - - - - - - -
25/02:30am - E 14 16 1011.0 - - - - - - - - -
25/02:24am - E 14 - 1011.0 - - - - - - - - -
25/02:00am - E 14 16 1011.2 - - - - - - - - -
25/01:30am - E 14 16 1011.7 - - - - - - - - -
25/01:24am - E 14 - 1011.6 - - - - - - - - -
25/01:00am - E 13 16 1011.9 - - - - - - - - -
25/12:30am - E 13 15 1012.4 - - - - - - - - -
25/12:24am - E 14 - 1012.5 - - - - - - - - -
25/12:00am - ESE 15 17 1012.9 - - - - - - - - -
 
Date/Time
EST
Temp

°C
Wind Pressure Rain
since 9am
mm
Weather Cloud Vis
km
Sea
Height
m
Swell
Dir
 
Speed
knots
Gust
knots
hPa Trend Height
m
Period
s
Dir
24/11:30pm - E 14 16 1013.2 - - - - - - - - -
24/11:24pm - E 14 - 1013.1 - - - - - - - - -
24/11:00pm - ESE 15 18 1013.4 - - - - - - - - -
24/10:30pm - E 14 16 1013.5 - - - - - - - - -
24/10:24pm - E 15 - 1013.4 - - - - - - - - -
24/10:00pm - E 14 17 1013.4 - - - - - - - - -
24/09:30pm - E 16 18 1013.2 - - - - - - - - -
24/09:24pm - E 16 - 1013.0 - - - - - - - - -
24/09:00pm - E 14 17 1013.1 - - - - - - - - -
24/08:30pm - E 15 16 1012.8 - - - - - - - - -
24/08:24pm - E 15 - 1012.6 - - - - - - - - -
24/08:00pm - E 14 17 1012.6 - - - - - - - - -
24/07:30pm - E 14 17 1012.4 - - - - - - - - -
24/07:24pm - E 15 - 1012.2 - - - - - - - - -
24/07:00pm - E 15 18 1012.1 - - - - - - - - -
24/06:30pm - E 14 16 1011.8 - - - - - - - - -
24/06:24pm - E 14 - 1011.7 - - - - - - - - -
24/06:00pm - E 14 17 1011.5 - - - - - - - - -
24/05:30pm - E 14 16 1011.3 - - - - - - - - -
24/05:24pm - E 14 - 1011.1 - - - - - - - - -
24/05:00pm - E 14 16 1011.1 - - - - - - - - -
24/04:30pm - E 14 16 1010.8 - - - - - - - - -
24/04:24pm - E 14 - 1010.6 - - - - - - - - -
24/04:00pm - E 16 17 1010.8 - - - - - - - - -
24/03:30pm - E 15 18 1011.1 - - - - - - - - -
24/03:24pm - E 16 - 1011.0 - - - - - - - - -
24/03:00pm - E 16 19 1011.3 - - - - - - - - -
24/02:30pm - E 16 18 1011.6 - - - - - - - - -
24/02:24pm - E 16 - 1011.6 - - - - - - - - -
24/02:00pm - E 15 17 1011.9 - - - - - - - - -
24/01:30pm - E 15 17 1012.0 - - - - - - - - -
24/01:24pm - E 15 - 1012.0 - - - - - - - - -
24/01:00pm - E 15 18 1012.2 - - - - - - - - -
24/12:30pm - E 15 17 1012.5 - - - - - - - - -
24/12:24pm - E 15 - 1012.6 - - - - - - - - -
24/12:00pm - E 16 18 1012.9 - - - - - - - - -
24/11:30am - E 16 19 1013.2 - - - - - - - - -
24/11:24am - E 16 - 1013.2 - - - - - - - - -
24/11:00am - E 17 19 1013.5 - - - - - - - - -
24/10:30am - E 17 19 1013.6 - - - - - - - - -
24/10:24am - E 17 - 1013.5 - - - - - - - - -
24/10:00am - E 18 19 1013.8 - - - - - - - - -
24/09:30am - E 16 19 1013.9 - - - - - - - - -
24/09:24am - E 16 - 1013.8 - - - - - - - - -
24/09:00am - E 17 20 1013.9 - - - - - - - - -
24/08:30am - E 15 18 1013.9 - - - - - - - - -
24/08:24am - E 15 - 1013.8 - - - - - - - - -
24/08:00am - E 15 17 1013.7 - - - - - - - - -
24/07:30am - E 14 16 1013.6 - - - - - - - - -
24/07:24am - E 14 - 1013.4 - - - - - - - - -
24/07:00am - E 13 14 1013.3 - - - - - - - - -
24/06:30am - E 12 15 1013.2 - - - - - - - - -
24/06:24am - E 13 - 1013.0 - - - - - - - - -
24/06:00am - E 14 16 1012.8 - - - - - - - - -
24/05:30am - E 17 19 1012.6 - - - - - - - - -
24/05:24am - E 17 - 1012.5 - - - - - - - - -
24/05:00am - E 16 18 1012.5 - - - - - - - - -
24/04:30am - NE 19 27 1012.8 - - - - - - - - -
24/04:28am - ENE 17 27 1012.7 - - - - - - - - -
24/04:24am - ENE 14 - 1012.5 - - - - - - - - -
24/04:00am - ENE 12 15 1012.5 - - - - - - - - -
24/03:30am - E 11 13 1012.3 - - - - - - - - -
24/03:24am - ENE 12 - 1012.2 - - - - - - - - -
24/03:00am - ENE 12 15 1012.2 - - - - - - - - -
24/02:30am - ENE 14 16 1012.3 - - - - - - - - -
24/02:24am - ENE 15 - 1012.3 - - - - - - - - -
24/02:00am - ENE 15 17 1012.6 - - - - - - - - -
24/01:30am - ENE 15 17 1013.0 - - - - - - - - -
24/01:24am - ENE 15 - 1012.9 - - - - - - - - -
24/01:00am - ENE 15 18 1013.2 - - - - - - - - -
24/12:30am - ENE 15 17 1013.5 - - - - - - - - -
24/12:24am - ENE 15 - 1013.4 - - - - - - - - -
24/12:00am - ENE 16 18 1013.8 - - - - - - - - -
 
Date/Time
EST
Temp

°C
Wind Pressure Rain
since 9am
mm
Weather Cloud Vis
km
Sea
Height
m
Swell
Dir
 
Speed
knots
Gust
knots
hPa Trend Height
m
Period
s
Dir
23/11:30pm - E 15 17 1014.1 - - - - - - - - -
23/11:24pm - E 16 - 1014.1 - - - - - - - - -
23/11:00pm - ENE 16 18 1014.3 - - - - - - - - -
23/10:30pm - E 17 19 1014.4 - - - - - - - - -
23/10:24pm - E 17 - 1014.4 - - - - - - - - -
23/10:00pm - ENE 16 19 1014.5 - - - - - - - - -
23/09:30pm - ENE 16 20 1014.1 - - - - - - - - -
23/09:24pm - ENE 16 - 1014.0 - - - - - - - - -
23/09:00pm - E 16 18 1013.8 - - - - - - - - -
23/08:30pm - E 16 18 1013.6 - - - - - - - - -
23/08:24pm - E 16 - 1013.4 - - - - - - - - -
23/08:00pm - E 15 17 1013.2 - - - - - - - - -
23/07:30pm - E 16 18 1012.9 - - - - - - - - -
23/07:24pm - E 16 - 1012.8 - - - - - - - - -
23/07:00pm - E 15 17 1012.7 - - - - - - - - -
23/06:30pm - E 14 16 1012.6 - - - - - - - - -
23/06:24pm - E 15 - 1012.5 - - - - - - - - -
23/06:00pm - ESE 14 16 1012.6 - - - - - - - - -
23/05:30pm - ESE 13 15 1012.7 - - - - - - - - -
23/05:24pm - ESE 12 - 1012.5 - - - - - - - - -
23/05:00pm - ESE 14 15 1012.4 - - - - - - - - -
23/04:30pm - SE 14 16 1012.5 - - - - - - - - -
23/04:24pm - SE 13 - 1012.4 - - - - - - - - -
23/04:00pm - SE 14 19 1012.5 - - - - - - - - -
23/03:30pm - SE 13 15 1012.6 - - - - - - - - -
23/03:24pm - SE 12 - 1012.4 - - - - - - - - -
23/03:00pm - SE 12 14 1012.8 - - - - - - - - -
23/02:30pm - SE 12 14 1012.9 - - - - - - - - -
23/02:24pm - SE 12 - 1012.8 - - - - - - - - -
23/02:00pm - SE 12 14 1013.1 - - - - - - - - -
23/01:30pm - ESE 13 14 1013.5 - - - - - - - - -
23/01:24pm - ESE 13 - 1013.5 - - - - - - - - -
23/01:00pm - ESE 12 14 1013.8 - - - - - - - - -
23/12:30pm - ESE 12 14 1014.1 - - - - - - - - -
23/12:24pm - ESE 12 - 1014.1 - - - - - - - - -
23/12:00pm - ESE 12 14 1014.3 - - - - - - - - -
23/11:30am - ESE 13 14 1014.5 - - - - - - - - -
23/11:24am - ESE 12 - 1014.5 - - - - - - - - -
23/11:00am - ESE 13 14 1014.8 - - - - - - - - -
23/10:30am - E 13 14 1015.0 - - - - - - - - -
23/10:24am - E 13 - 1014.9 - - - - - - - - -
23/10:00am - ESE 12 14 1015.0 - - - - - - - - -
23/09:30am - ESE 13 16 1015.1 - - - - - - - - -
23/09:24am - E 14 - 1015.1 - - - - - - - - -
23/09:00am - ESE 12 15 1015.0 - - - - - - - - -
23/08:30am - ESE 10 14 1014.9 - - - - - - - - -
23/08:24am - ESE 11 - 1014.8 - - - - - - - - -
23/08:00am - ESE 12 14 1014.8 - - - - - - - - -
23/07:30am - ESE 12 14 1014.4 - - - - - - - - -
23/07:24am - ESE 10 - 1014.3 - - - - - - - - -
23/07:00am - ESE 11 13 1014.2 - - - - - - - - -
23/06:30am - ESE 12 13 1013.7 - - - - - - - - -
23/06:24am - ESE 12 - 1013.6 - - - - - - - - -
23/06:00am - ESE 13 15 1013.4 - - - - - - - - -
23/05:30am - ESE 11 12 1013.2 - - - - - - - - -
23/05:24am - ESE 11 - 1013.0 - - - - - - - - -
23/05:00am - ESE 11 13 1013.0 - - - - - - - - -
23/04:30am - E 11 13 1012.7 - - - - - - - - -
23/04:24am - E 11 - 1012.5 - - - - - - - - -
23/04:00am - E 11 13 1012.4 - - - - - - - - -
23/03:30am - E 11 13 1012.3 - - - - - - - - -
23/03:24am - E 12 - 1012.1 - - - - - - - - -
23/03:00am - E 13 15 1012.4 - - - - - - - - -
23/02:30am - ESE 12 14 1012.3 - - - - - - - - -
23/02:24am - ESE 12 - 1012.2 - - - - - - - - -
23/02:00am - E 12 14 1012.5 - - - - - - - - -
23/01:30am - ESE 13 15 1012.7 - - - - - - - - -
23/01:24am - E 13 - 1012.7 - - - - - - - - -
23/01:00am - E 12 14 1013.1 - - - - - - - - -
23/12:30am - E 12 15 1013.4 - - - - - - - - -
23/12:24am - E 12 - 1013.4 - - - - - - - - -
23/12:00am - E 13 15 1013.8 - - - - - - - - -
 
Date/Time
EST
Temp

°C
Wind Pressure Rain
since 9am
mm
Weather Cloud Vis
km
Sea
Height
m
Swell
Dir
 
Speed
knots
Gust
knots
hPa Trend Height
m
Period
s
Dir
22/11:30pm - ENE 11 13 1014.1 - - - - - - - - -
22/11:24pm - ENE 10 - 1014.1 - - - - - - - - -
22/11:00pm - ENE 9 10 1014.3 - - - - - - - - -
22/10:30pm - ENE 10 11 1014.5 - - - - - - - - -
22/10:24pm - ENE 10 - 1014.4 - - - - - - - - -
22/10:00pm - E 10 11 1014.2 - - - - - - - - -
22/09:30pm - E 11 13 1013.9 - - - - - - - - -
22/09:24pm - E 11 - 1013.8 - - - - - - - - -
22/09:00pm - E 10 12 1013.7 - - - - - - - - -
22/08:30pm - E 11 12 1013.4 - - - - - - - - -
22/08:24pm - E 10 - 1013.2 - - - - - - - - -
22/08:00pm - E 11 12 1013.1 - - - - - - - - -
22/07:30pm - E 10 12 1013.0 - - - - - - - - -
22/07:24pm - E 11 - 1012.9 - - - - - - - - -
22/07:00pm - E 10 11 1012.9 - - - - - - - - -
22/06:30pm - E 11 12 1012.8 - - - - - - - - -
22/06:24pm - E 10 - 1012.7 - - - - - - - - -
22/06:00pm - E 11 13 1012.6 - - - - - - - - -
22/05:30pm - E 10 11 1012.6 - - - - - - - - -
22/05:24pm - E 10 - 1012.5 - - - - - - - - -
22/05:00pm - ESE 9 11 1012.5 - - - - - - - - -
22/04:30pm - ESE 10 11 1012.2 - - - - - - - - -
22/04:24pm - ESE 9 - 1012.1 - - - - - - - - -
22/04:00pm - E 9 10 1012.1 - - - - - - - - -
22/03:30pm - E 9 11 1012.2 - - - - - - - - -
22/03:24pm - E 10 - 1012.2 - - - - - - - - -
22/03:00pm - E 10 11 1012.4 - - - - - - - - -
22/02:30pm - E 11 12 1012.5 - - - - - - - - -
22/02:24pm - E 11 - 1012.5 - - - - - - - - -
22/02:00pm - E 10 12 1012.8 - - - - - - - - -
22/01:30pm - ESE 9 11 1012.8 - - - - - - - - -
22/01:24pm - ESE 9 - 1012.7 - - - - - - - - -
22/01:00pm - E 10 11 1013.0 - - - - - - - - -
22/12:30pm - E 10 11 1013.4 - - - - - - - - -
22/12:24pm - E 9 - 1013.4 - - - - - - - - -
22/12:00pm - ENE 10 11 1013.7 - - - - - - - - -
22/11:30am - ENE 10 12 1014.1 - - - - - - - - -
22/11:24am - ENE 10 - 1014.0 - - - - - - - - -
22/11:00am - ENE 10 11 1014.3 - - - - - - - - -
22/10:30am - E 10 13 1014.4 - - - - - - - - -
22/10:24am - E 9 - 1014.3 - - - - - - - - -
22/10:00am - E 9 11 1014.5 - - - - - - - - -
22/09:30am - E 9 11 1014.7 - - - - - - - - -
22/09:24am - E 10 - 1014.6 - - - - - - - - -
22/09:00am - NE 9 10 1014.7 - - - - - - - - -
22/08:30am - NE 8 9 1014.8 - - - - - - - - -
22/08:24am - E 7 - 1014.6 - - - - - - - - -
22/08:00am - E 8 9 1014.7 - - - - - - - - -

Other Formats:

Comma delimited format used in spreadsheet applications
http://www.bom.gov.au/fwo/IDQ60701/IDQ60701.94290.axf

JavaScript Object Notation format (JSON) in row-major order
http://www.bom.gov.au/fwo/IDQ60701/IDQ60701.94290.json